メインページ
METAR-TAF:

METAR-TAF

空港 :

ハルビン, 中華人民共和国

ハルビン太平国際空港

緯度: 45-45N, 経度: 126-46E, 海抜: 143m

現時点の気象観測

当レポートは34分前の23:00(UTC)に作成
南/南西の風 14kt
気温 17°C
湿度 59%
気圧 1001 hPa
視程10km以上
1,500メートル以下は雲なし、積乱雲なし

METAR: ZYHB 232300Z 20007MPS CAVOK 17/09 Q1001 NOSIG

時間: 07:34 (23:34 UTC)

予報

当レポートは8時間32分前の15:02(UTC)に作成
予報は23日の 18時(UTC)から 24日の 18時(UTC)まで有効
の風 14kt、最大27ktの突風を伴う
視程: 6000m
高度3000ftの雲はほとんどない
24日の 00時(UTC)から 24日の 01時(UTC)まで徐々に
西/北西の風 14kt、最大27ktの突風を伴う

TAF: ZYHB 231502Z 2318/2418 19007G14MPS 6000 FEW030 TX21/2406Z TN13/2321Z BECMG 2400/2401 29007G14MPS

4,000以上の空港の気象観測と天気予報(METAR報とTAF報)

利用可能な観測所は地図上に黄色い丸と赤い丸で示す。

丸の上にカーソルを重ねると観測所名を参照できる。

次にクリックすると気象観測と天気予報を参照できる。

マップの切り替え:黒色「×」印の緑ボタンをクリックして拡大、「-」印の緑ボタンをクリックして縮小、緑色の三角印をクリックして隣りの地図に切り替え


METAR-TAF: